createdAt,value
2018-05-18T00:01:46.424Z,11.40
2018-05-18T00:04:12.753Z,11.40
2018-05-18T00:06:39.568Z,11.40
2018-05-18T00:09:05.607Z,11.40
2018-05-18T00:11:31.647Z,11.30
2018-05-18T00:13:57.680Z,11.30
2018-05-18T00:16:24.474Z,11.30
2018-05-18T00:18:51.265Z,11.30
2018-05-18T00:21:17.323Z,11.30
2018-05-18T00:23:43.489Z,11.30
2018-05-18T00:26:09.566Z,11.30
2018-05-18T00:28:35.609Z,11.20
2018-05-18T00:31:01.708Z,11.30
2018-05-18T00:33:28.496Z,11.20
2018-05-18T00:35:54.556Z,11.20
2018-05-18T00:38:20.602Z,11.20
2018-05-18T00:40:46.649Z,11.20
2018-05-18T00:43:12.709Z,11.20
2018-05-18T00:45:39.483Z,11.20
2018-05-18T00:48:06.333Z,11.20
2018-05-18T00:50:33.435Z,11.20
2018-05-18T00:52:59.477Z,11.10
2018-05-18T00:55:37.883Z,11.10
2018-05-18T00:58:03.916Z,11.10
2018-05-18T01:00:30.037Z,11.20
2018-05-18T01:02:57.107Z,11.20
2018-05-18T01:05:23.146Z,11.20
2018-05-18T01:07:49.233Z,11.20
2018-05-18T01:10:15.327Z,11.20
2018-05-18T01:12:41.366Z,11.20
2018-05-18T01:15:07.410Z,11.10
2018-05-18T01:17:33.533Z,11.10
2018-05-18T01:19:59.631Z,11.10
2018-05-18T01:22:25.669Z,11.10
2018-05-18T01:24:51.730Z,11.10
2018-05-18T01:27:18.506Z,11.20
2018-05-18T01:29:44.545Z,11.10
2018-05-18T01:32:10.641Z,11.10
2018-05-18T01:34:36.680Z,11.10
2018-05-18T01:37:02.750Z,11.10
2018-05-18T01:39:28.833Z,11.20
2018-05-18T01:41:54.865Z,11.20
2018-05-18T01:44:20.917Z,11.20
2018-05-18T01:46:46.994Z,11.20
2018-05-18T01:49:13.053Z,11.10
2018-05-18T01:51:39.130Z,11.10
2018-05-18T01:54:05.172Z,11.20
2018-05-18T01:56:31.550Z,11.20
2018-05-18T01:58:58.351Z,11.20
2018-05-18T02:01:24.392Z,11.10
2018-05-18T02:03:50.441Z,11.20
2018-05-18T02:06:16.478Z,11.20
2018-05-18T02:08:42.697Z,11.10
2018-05-18T02:11:08.749Z,11.10
2018-05-18T02:13:34.800Z,11.20
2018-05-18T02:16:00.899Z,11.20
2018-05-18T02:18:27.022Z,11.20
2018-05-18T02:20:53.090Z,11.10
2018-05-18T02:23:19.157Z,11.20
2018-05-18T02:25:45.229Z,11.10
2018-05-18T02:28:11.267Z,11.20
2018-05-18T02:30:37.291Z,11.10
2018-05-18T02:33:03.357Z,11.10
2018-05-18T02:35:29.412Z,11.10
2018-05-18T02:37:56.283Z,11.10
2018-05-18T02:40:22.329Z,11.10
2018-05-18T02:42:48.360Z,11.20
2018-05-18T02:45:14.436Z,11.20
2018-05-18T02:47:40.465Z,11.20
2018-05-18T02:50:06.558Z,11.20
2018-05-18T02:52:32.654Z,11.10
2018-05-18T02:54:58.704Z,11.10
2018-05-18T02:57:24.752Z,11.20
2018-05-18T02:59:50.843Z,11.20
2018-05-18T03:02:17.605Z,11.20
2018-05-18T03:04:44.376Z,11.20
2018-05-18T03:07:10.431Z,11.20
2018-05-18T03:09:36.569Z,11.20
2018-05-18T03:12:02.654Z,11.20
2018-05-18T03:14:28.705Z,11.20
2018-05-18T03:16:55.500Z,11.10
2018-05-18T03:19:21.641Z,11.10
2018-05-18T03:21:48.617Z,11.10
2018-05-18T03:24:14.669Z,11.10
2018-05-18T03:26:40.738Z,11.10
2018-05-18T03:29:06.804Z,11.20
2018-05-18T03:31:32.865Z,11.20
2018-05-18T03:33:58.915Z,11.10
2018-05-18T03:36:25.328Z,11.20
2018-05-18T03:38:51.383Z,11.20
2018-05-18T03:41:17.429Z,11.10
2018-05-18T03:43:43.514Z,11.20
2018-05-18T03:46:09.579Z,11.20
2018-05-18T03:48:35.634Z,11.20
2018-05-18T03:51:01.721Z,11.20
2018-05-18T03:53:28.524Z,11.20
2018-05-18T03:55:54.573Z,11.20
2018-05-18T03:58:20.636Z,11.20
2018-05-18T04:00:46.663Z,11.30
2018-05-18T04:03:25.237Z,11.30
2018-05-18T04:06:03.601Z,11.30
2018-05-18T04:08:50.706Z,11.30
2018-05-18T04:11:17.959Z,11.30
2018-05-18T04:13:44.267Z,11.30
2018-05-18T04:16:10.339Z,11.20
2018-05-18T04:18:36.379Z,11.20
2018-05-18T04:21:02.501Z,11.20
2018-05-18T04:23:29.298Z,11.30
2018-05-18T04:25:55.412Z,11.30
2018-05-18T04:28:21.596Z,11.30
2018-05-18T04:30:47.627Z,11.30
2018-05-18T04:33:13.652Z,11.40
2018-05-18T04:35:39.757Z,11.30
2018-05-18T04:38:05.801Z,11.40
2018-05-18T04:40:31.810Z,11.40
2018-05-18T04:42:58.663Z,11.40
2018-05-18T04:45:25.440Z,11.40
2018-05-18T04:47:51.478Z,11.40
2018-05-18T04:50:17.504Z,11.40
2018-05-18T04:52:44.281Z,11.40
2018-05-18T04:55:10.383Z,11.40
2018-05-18T04:57:37.266Z,11.40
2018-05-18T05:00:04.010Z,11.40
2018-05-18T05:02:30.087Z,11.40
2018-05-18T05:04:56.745Z,11.50
2018-05-18T05:07:22.918Z,11.60
2018-05-18T05:09:48.968Z,11.50
2018-05-18T05:12:15.767Z,11.50
2018-05-18T05:14:41.810Z,11.40
2018-05-18T05:17:07.877Z,11.40
2018-05-18T05:19:33.929Z,11.40
2018-05-18T05:22:00.773Z,11.60
2018-05-18T05:24:26.817Z,11.50
2018-05-18T05:26:52.864Z,11.60
2018-05-18T05:29:19.660Z,11.60
2018-05-18T05:31:45.707Z,11.60
2018-05-18T05:34:11.756Z,11.60
2018-05-18T05:36:38.666Z,11.70
2018-05-18T05:39:04.726Z,11.60
2018-05-18T05:41:30.773Z,11.70
2018-05-18T05:43:56.872Z,11.70
2018-05-18T05:49:16.741Z,11.90
2018-05-18T05:51:42.802Z,11.90
2018-05-18T05:54:08.873Z,11.90
2018-05-18T05:56:35.204Z,11.90
2018-05-18T05:59:01.985Z,11.80
2018-05-18T06:01:28.013Z,11.80
2018-05-18T06:03:54.097Z,11.80
2018-05-18T06:06:20.160Z,11.90
2018-05-18T06:08:46.184Z,12.00
2018-05-18T06:11:12.245Z,12.00
2018-05-18T06:13:39.244Z,11.90
2018-05-18T06:16:05.276Z,11.90
2018-05-18T06:18:31.315Z,12.00
2018-05-18T06:20:57.349Z,12.00
2018-05-18T06:23:23.365Z,12.00
2018-05-18T06:25:50.146Z,12.00
2018-05-18T06:28:16.317Z,12.00
2018-05-18T06:30:42.458Z,12.00
2018-05-18T06:33:08.553Z,12.00
2018-05-18T06:35:34.645Z,12.00
2018-05-18T06:38:01.459Z,11.90
2018-05-18T06:40:27.518Z,11.90
2018-05-18T06:42:53.586Z,12.00
2018-05-18T06:45:20.378Z,12.10
2018-05-18T06:47:46.419Z,12.00
2018-05-18T06:50:12.537Z,12.00
2018-05-18T06:52:39.440Z,12.10
2018-05-18T06:55:05.426Z,12.10
2018-05-18T06:57:31.504Z,12.10
2018-05-18T06:59:57.572Z,12.10
2018-05-18T07:02:23.629Z,12.20
2018-05-18T07:04:50.456Z,12.10
2018-05-18T07:07:16.496Z,12.10
2018-05-18T07:09:42.578Z,12.10
2018-05-18T07:12:08.661Z,12.10
2018-05-18T07:14:34.733Z,12.10
2018-05-18T07:17:01.581Z,12.00
2018-05-18T07:19:28.380Z,12.00
2018-05-18T07:21:54.447Z,12.00
2018-05-18T07:24:20.793Z,12.00
2018-05-18T07:26:46.833Z,11.90
2018-05-18T07:29:12.871Z,12.00
2018-05-18T07:31:38.917Z,12.00
2018-05-18T07:34:05.763Z,12.00
2018-05-18T07:36:31.799Z,12.00
2018-05-18T07:38:57.886Z,12.10
2018-05-18T07:41:23.982Z,12.10
2018-05-18T07:43:50.075Z,12.10
2018-05-18T07:46:16.106Z,12.00
2018-05-18T07:48:42.235Z,12.10
2018-05-18T07:51:08.313Z,12.10
2018-05-18T07:53:34.482Z,12.10
2018-05-18T07:56:00.452Z,12.10
2018-05-18T07:58:26.499Z,12.10
2018-05-18T08:00:52.569Z,12.00
2018-05-18T08:03:18.629Z,12.10
2018-05-18T08:05:44.660Z,12.10
2018-05-18T08:08:10.733Z,12.20
2018-05-18T08:10:36.749Z,12.20
2018-05-18T08:13:03.741Z,12.10
2018-05-18T08:15:29.786Z,12.10
2018-05-18T08:17:55.900Z,12.20
2018-05-18T08:20:22.160Z,12.30
2018-05-18T08:22:48.272Z,12.40
2018-05-18T08:25:15.075Z,12.70
2018-05-18T08:27:41.175Z,12.70
2018-05-18T08:30:08.048Z,12.80
2018-05-18T08:32:34.142Z,12.70
2018-05-18T08:35:00.191Z,12.80
2018-05-18T08:37:27.004Z,12.80
2018-05-18T08:39:53.163Z,12.80
2018-05-18T08:42:19.224Z,12.90
2018-05-18T08:44:46.026Z,12.90
2018-05-18T08:47:12.119Z,12.80
2018-05-18T08:49:38.966Z,13.00
2018-05-18T08:52:05.032Z,13.00
2018-05-18T08:54:31.059Z,13.20
2018-05-18T08:56:57.846Z,12.90
2018-05-18T08:59:23.909Z,12.90
2018-05-18T09:01:49.964Z,12.90
2018-05-18T09:04:16.792Z,12.90
2018-05-18T09:06:42.938Z,12.90
2018-05-18T09:09:09.088Z,13.00
2018-05-18T09:11:35.156Z,13.10
2018-05-18T09:14:01.963Z,13.20
2018-05-18T09:16:28.030Z,13.20
2018-05-18T09:18:54.049Z,13.40
2018-05-18T09:21:20.888Z,13.30
2018-05-18T09:23:47.020Z,13.30
2018-05-18T09:26:13.025Z,13.40
2018-05-18T09:28:39.126Z,13.30
2018-05-18T09:31:05.190Z,13.40
2018-05-18T09:33:32.000Z,13.50
2018-05-18T09:35:58.141Z,13.40
2018-05-18T09:38:24.213Z,13.60
2018-05-18T09:40:51.025Z,13.50
2018-05-18T09:43:17.953Z,13.70
2018-05-18T09:45:44.894Z,13.70
2018-05-18T09:48:11.683Z,13.90
2018-05-18T09:50:59.682Z,13.90
2018-05-18T09:53:25.726Z,14.00
2018-05-18T09:55:51.803Z,14.10
2018-05-18T09:58:17.854Z,14.00
2018-05-18T10:00:43.972Z,13.90
2018-05-18T10:03:11.040Z,13.90
2018-05-18T10:05:37.140Z,13.90
2018-05-18T10:08:04.130Z,14.10
2018-05-18T10:10:30.215Z,14.30
2018-05-18T10:12:56.377Z,14.30
2018-05-18T10:15:23.190Z,14.50
2018-05-18T10:17:49.241Z,14.50
2018-05-18T10:20:15.332Z,14.20
2018-05-18T10:22:41.379Z,13.90
2018-05-18T10:25:07.402Z,13.70
2018-05-18T10:27:33.499Z,13.80
2018-05-18T10:29:59.566Z,13.80
2018-05-18T10:32:26.403Z,13.70
2018-05-18T10:34:52.427Z,13.70
2018-05-18T10:37:19.241Z,14.00
2018-05-18T10:39:45.384Z,13.90
2018-05-18T10:42:11.333Z,14.00
2018-05-18T10:44:37.358Z,14.10
2018-05-18T10:47:03.437Z,14.20
2018-05-18T10:49:29.536Z,14.10
2018-05-18T10:51:55.615Z,13.90
2018-05-18T10:54:21.946Z,13.80
2018-05-18T10:56:48.068Z,13.80
2018-05-18T10:59:14.197Z,13.80
2018-05-18T11:01:40.215Z,13.70
2018-05-18T11:04:06.139Z,13.60
2018-05-18T11:06:32.069Z,13.60
2018-05-18T11:09:00.591Z,13.60
2018-05-18T11:11:26.517Z,13.80
2018-05-18T11:13:52.445Z,13.70
2018-05-18T11:16:18.693Z,13.70
2018-05-18T11:18:44.639Z,13.80
2018-05-18T11:21:10.581Z,13.80
2018-05-18T11:23:36.552Z,13.90
2018-05-18T11:26:02.477Z,13.90
2018-05-18T11:28:28.505Z,14.00
2018-05-18T11:30:54.572Z,13.80
2018-05-18T11:33:20.638Z,13.80
2018-05-18T11:35:47.450Z,13.60
2018-05-18T11:38:13.503Z,13.60
2018-05-18T11:40:39.591Z,13.60
2018-05-18T11:43:05.695Z,13.70
2018-05-18T11:45:32.486Z,13.70
2018-05-18T11:47:58.559Z,13.70
2018-05-18T11:50:26.418Z,14.00
2018-05-18T11:52:52.518Z,13.90
2018-05-18T11:55:18.570Z,13.90
2018-05-18T11:57:44.656Z,14.00
2018-05-18T12:00:10.738Z,13.90
2018-05-18T12:02:37.659Z,14.20
2018-05-18T12:05:03.688Z,14.20
2018-05-18T12:07:29.737Z,14.40
2018-05-18T12:09:55.845Z,14.60
2018-05-18T12:12:21.877Z,14.50
2018-05-18T12:14:47.989Z,14.60
2018-05-18T12:17:15.072Z,14.60
2018-05-18T12:19:41.142Z,14.60
2018-05-18T12:22:07.267Z,14.60
2018-05-18T12:24:33.389Z,14.80
2018-05-18T12:26:59.426Z,14.80
2018-05-18T12:29:25.460Z,14.70
2018-05-18T12:31:51.817Z,14.90
2018-05-18T12:34:17.912Z,14.80
2018-05-18T12:36:43.952Z,14.70
2018-05-18T12:39:11.022Z,14.60
2018-05-18T12:41:37.066Z,14.60
2018-05-18T12:44:03.196Z,14.40
2018-05-18T12:46:29.267Z,14.40
2018-05-18T12:48:55.292Z,14.40
2018-05-18T12:51:21.321Z,14.40
2018-05-18T12:53:47.538Z,14.50
2018-05-18T12:56:14.382Z,14.60
2018-05-18T12:58:40.450Z,14.60
2018-05-18T13:01:06.605Z,14.50
2018-05-18T13:03:32.732Z,14.60
2018-05-18T13:05:58.791Z,14.50
2018-05-18T13:08:24.872Z,14.50
2018-05-18T13:10:50.927Z,14.60
2018-05-18T13:13:16.976Z,14.60
2018-05-18T13:15:43.086Z,14.50
2018-05-18T13:18:09.053Z,14.70
2018-05-18T13:20:34.998Z,14.80
2018-05-18T13:23:01.050Z,14.80
2018-05-18T13:25:26.986Z,14.80
2018-05-18T13:27:52.913Z,14.70
2018-05-18T13:30:19.221Z,14.90
2018-05-18T13:32:45.944Z,14.90
2018-05-18T13:35:11.997Z,14.90
2018-05-18T13:37:37.932Z,15.00
2018-05-18T13:40:03.893Z,14.90
2018-05-18T13:42:29.868Z,14.80
2018-05-18T13:44:55.956Z,14.80
2018-05-18T13:47:21.753Z,14.60
2018-05-18T13:49:47.731Z,14.50
2018-05-18T13:52:13.666Z,14.40
2018-05-18T13:54:40.356Z,14.30
2018-05-18T13:57:06.350Z,14.30
2018-05-18T13:59:32.259Z,14.30
2018-05-18T14:01:58.413Z,14.10
2018-05-18T14:04:25.075Z,14.30
2018-05-18T14:06:51.007Z,14.30
2018-05-18T14:09:17.676Z,14.20
2018-05-18T14:11:43.637Z,14.20
2018-05-18T14:14:09.600Z,14.20
2018-05-18T14:16:35.566Z,14.20
2018-05-18T14:19:02.231Z,14.10
2018-05-18T14:21:28.174Z,14.20
2018-05-18T14:23:54.096Z,14.20
2018-05-18T14:26:20.024Z,14.10
2018-05-18T14:28:45.986Z,14.10
2018-05-18T14:31:12.201Z,14.10
2018-05-18T14:33:38.150Z,14.10
2018-05-18T14:36:04.080Z,14.30
2018-05-18T14:38:30.061Z,14.30
2018-05-18T14:40:56.731Z,14.30
2018-05-18T14:43:22.671Z,14.30
2018-05-18T14:45:48.893Z,14.30
2018-05-18T14:48:14.877Z,14.30
2018-05-18T14:50:40.845Z,14.30
2018-05-18T14:53:06.827Z,14.20
2018-05-18T14:55:33.503Z,14.40
2018-05-18T14:57:59.457Z,14.40
2018-05-18T15:00:25.430Z,14.30
2018-05-18T15:02:52.044Z,14.40
2018-05-18T15:05:17.944Z,14.30
2018-05-18T15:07:44.688Z,14.20
2018-05-18T15:10:11.391Z,14.20
2018-05-18T15:12:37.409Z,14.20
2018-05-18T15:15:03.310Z,14.20
2018-05-18T15:17:29.985Z,14.30
2018-05-18T15:19:55.957Z,14.30
2018-05-18T15:22:21.942Z,14.40
2018-05-18T15:24:48.636Z,14.50
2018-05-18T15:27:14.611Z,14.50
2018-05-18T15:29:40.580Z,14.40
2018-05-18T15:32:06.555Z,14.40
2018-05-18T15:34:32.492Z,14.30
2018-05-18T15:36:58.415Z,14.20
2018-05-18T15:39:24.464Z,14.10
2018-05-18T15:41:50.396Z,14.10
2018-05-18T15:44:16.364Z,14.10
2018-05-18T15:46:42.301Z,13.80
2018-05-18T15:49:08.243Z,13.70
2018-05-18T15:51:34.139Z,13.60
2018-05-18T15:54:00.090Z,13.50
2018-05-18T15:56:26.063Z,13.40
2018-05-18T15:58:52.044Z,13.40
2018-05-18T16:01:17.993Z,13.40
2018-05-18T16:03:43.963Z,13.40
2018-05-18T16:06:09.952Z,13.40
2018-05-18T16:08:35.893Z,13.50
2018-05-18T16:11:01.828Z,13.40
2018-05-18T16:13:27.860Z,13.40
2018-05-18T16:15:53.813Z,13.40
2018-05-18T16:18:19.778Z,13.30
2018-05-18T16:20:45.714Z,13.30
2018-05-18T16:23:11.692Z,13.30
2018-05-18T16:25:37.641Z,13.30
2018-05-18T16:28:03.730Z,13.30
2018-05-18T16:30:29.565Z,13.30
2018-05-18T16:32:55.496Z,13.20
2018-05-18T16:35:21.484Z,13.20
2018-05-18T16:37:47.418Z,13.20
2018-05-18T16:40:13.470Z,13.20
2018-05-18T16:42:40.080Z,13.20
2018-05-18T16:45:06.382Z,13.20
2018-05-18T16:47:32.328Z,13.20
2018-05-18T16:49:58.278Z,13.20
2018-05-18T16:52:24.485Z,13.20
2018-05-18T16:54:51.149Z,13.30
2018-05-18T16:57:17.080Z,13.30
2018-05-18T16:59:43.049Z,13.20
2018-05-18T17:02:08.989Z,13.20
2018-05-18T17:04:34.942Z,13.30
2018-05-18T17:07:00.868Z,13.30
2018-05-18T17:09:26.832Z,13.50
2018-05-18T17:11:53.528Z,13.60
2018-05-18T17:14:19.456Z,13.60
2018-05-18T17:16:46.054Z,13.60
2018-05-18T17:19:12.065Z,13.60
2018-05-18T17:21:38.015Z,13.50
2018-05-18T17:24:03.927Z,13.40
2018-05-18T17:26:29.933Z,13.40
2018-05-18T17:28:55.963Z,13.40
2018-05-18T17:31:22.019Z,13.40
2018-05-18T17:33:48.052Z,13.40
2018-05-18T17:36:14.057Z,13.30
2018-05-18T17:38:40.132Z,13.40
2018-05-18T17:41:06.019Z,13.50
2018-05-18T17:43:31.968Z,13.50
2018-05-18T17:45:58.115Z,13.50
2018-05-18T17:48:24.072Z,13.60
2018-05-18T17:50:50.013Z,13.60
2018-05-18T17:53:15.982Z,13.70
2018-05-18T17:55:41.931Z,13.70
2018-05-18T17:58:07.852Z,13.70
2018-05-18T18:00:33.779Z,13.70
2018-05-18T18:03:00.679Z,13.60
2018-05-18T18:05:27.512Z,13.40
2018-05-18T18:07:53.473Z,13.40
2018-05-18T18:10:19.391Z,13.30
2018-05-18T18:12:45.324Z,13.30
2018-05-18T18:15:12.488Z,13.10
2018-05-18T18:17:38.453Z,13.10
2018-05-18T18:20:04.420Z,13.10
2018-05-18T18:22:30.453Z,13.10
2018-05-18T18:24:56.383Z,13.10
2018-05-18T18:27:22.379Z,13.00
2018-05-18T18:29:49.030Z,12.90
2018-05-18T18:32:15.734Z,12.90
2018-05-18T18:34:41.729Z,12.90
2018-05-18T18:37:07.652Z,12.90
2018-05-18T18:39:34.327Z,12.80
2018-05-18T18:42:00.238Z,12.80
2018-05-18T18:44:26.182Z,12.80
2018-05-18T18:46:52.151Z,12.80
2018-05-18T18:49:18.114Z,12.70
2018-05-18T18:51:44.042Z,12.70
2018-05-18T18:54:09.985Z,12.70
2018-05-18T18:56:35.974Z,12.70
2018-05-18T18:59:01.934Z,12.60
2018-05-18T19:01:27.874Z,12.60
2018-05-18T19:03:53.813Z,12.60
2018-05-18T19:06:19.743Z,12.60
2018-05-18T19:08:45.766Z,12.60
2018-05-18T19:11:11.760Z,12.60
2018-05-18T19:13:39.108Z,12.60
2018-05-18T19:16:05.410Z,12.50
2018-05-18T19:18:31.317Z,12.60
2018-05-18T19:20:57.238Z,12.60
2018-05-18T19:23:23.236Z,12.60
2018-05-18T19:25:49.172Z,12.60
2018-05-18T19:28:15.181Z,12.60
2018-05-18T19:30:41.152Z,12.50
2018-05-18T19:33:07.105Z,12.60
2018-05-18T19:35:33.028Z,12.50
2018-05-18T19:37:59.795Z,12.50
2018-05-18T19:40:26.466Z,12.40
2018-05-18T19:42:52.413Z,12.40
2018-05-18T19:45:18.401Z,12.40
2018-05-18T19:47:44.325Z,12.40
2018-05-18T19:50:10.299Z,12.40
2018-05-18T19:52:36.234Z,12.40
2018-05-18T19:55:02.173Z,12.30
2018-05-18T19:57:28.229Z,12.30
2018-05-18T19:59:54.135Z,12.30
2018-05-18T20:02:20.793Z,12.30
2018-05-18T20:04:46.724Z,12.20
2018-05-18T20:07:12.705Z,12.30
2018-05-18T20:09:38.653Z,12.30
2018-05-18T20:12:04.589Z,12.30
2018-05-18T20:14:30.553Z,12.30
2018-05-18T20:16:57.484Z,12.30
2018-05-18T20:19:23.413Z,12.30
2018-05-18T20:21:49.318Z,12.30
2018-05-18T20:24:15.513Z,12.30
2018-05-18T20:26:41.442Z,12.30
2018-05-18T20:29:07.409Z,12.40
2018-05-18T20:31:33.381Z,12.30
2018-05-18T20:33:59.304Z,12.30
2018-05-18T20:36:25.348Z,12.30
2018-05-18T20:38:51.317Z,12.20
2018-05-18T20:41:17.232Z,12.30
2018-05-18T20:43:43.169Z,12.30
2018-05-18T20:46:09.348Z,12.30
2018-05-18T20:48:35.976Z,12.20
2018-05-18T20:51:02.717Z,12.20
2018-05-18T20:53:28.764Z,12.20
2018-05-18T20:55:54.829Z,12.10
2018-05-18T20:58:20.849Z,12.10
2018-05-18T21:00:47.733Z,12.00
2018-05-18T21:03:13.748Z,12.00
2018-05-18T21:05:39.776Z,11.90
2018-05-18T21:08:06.562Z,11.80
2018-05-18T21:10:32.637Z,11.80
2018-05-18T21:12:58.649Z,11.80
2018-05-18T21:15:24.717Z,11.70
2018-05-18T21:17:50.797Z,11.70
2018-05-18T21:20:16.824Z,11.70
2018-05-18T21:22:43.604Z,11.70
2018-05-18T21:25:09.736Z,11.70
2018-05-18T21:27:35.772Z,11.70
2018-05-18T21:30:02.010Z,11.60
2018-05-18T21:32:28.125Z,11.60
2018-05-18T21:34:54.982Z,11.60
2018-05-18T21:37:21.121Z,11.60
2018-05-18T21:39:47.161Z,11.70
2018-05-18T21:42:13.238Z,11.60
2018-05-18T21:44:39.267Z,11.60
2018-05-18T21:47:12.337Z,11.60
2018-05-18T21:49:39.118Z,11.50
2018-05-18T21:52:05.162Z,11.50
2018-05-18T21:54:31.334Z,11.60
2018-05-18T21:56:57.377Z,11.60
2018-05-18T21:59:23.416Z,11.50
2018-05-18T22:01:49.487Z,11.50
2018-05-18T22:04:16.270Z,11.50
2018-05-18T22:06:42.304Z,11.50
2018-05-18T22:09:08.369Z,11.50
2018-05-18T22:11:34.377Z,11.50
2018-05-18T22:14:00.410Z,11.50
2018-05-18T22:16:26.600Z,11.50
2018-05-18T22:18:52.647Z,11.50
2018-05-18T22:21:18.658Z,11.50
2018-05-18T22:23:44.719Z,11.50
2018-05-18T22:26:10.762Z,11.50
2018-05-18T22:28:37.545Z,11.50
2018-05-18T22:31:03.663Z,11.50
2018-05-18T22:33:30.510Z,11.50
2018-05-18T22:35:56.567Z,11.50
2018-05-18T22:38:23.388Z,11.40
2018-05-18T22:40:50.165Z,11.40
2018-05-18T22:43:17.299Z,11.40
2018-05-18T22:45:43.345Z,11.40
2018-05-18T22:48:09.429Z,11.40
2018-05-18T22:50:35.469Z,11.50
2018-05-18T22:53:01.514Z,11.50
2018-05-18T22:55:27.553Z,11.50
2018-05-18T22:57:53.611Z,11.50
2018-05-18T23:00:25.589Z,11.50
2018-05-18T23:02:51.635Z,11.50
2018-05-18T23:05:17.639Z,11.50
2018-05-18T23:07:43.654Z,11.40
2018-05-18T23:10:09.725Z,11.40
2018-05-18T23:12:35.814Z,11.30
2018-05-18T23:15:02.590Z,11.40
2018-05-18T23:17:28.635Z,11.40
2018-05-18T23:19:54.671Z,11.40
2018-05-18T23:22:20.678Z,11.40
2018-05-18T23:24:46.698Z,11.40
2018-05-18T23:27:12.765Z,11.40
2018-05-18T23:29:38.808Z,11.40
2018-05-18T23:32:04.858Z,11.40
2018-05-18T23:34:30.989Z,11.40
2018-05-18T23:36:57.297Z,11.30
2018-05-18T23:39:23.321Z,11.40
2018-05-18T23:41:49.352Z,11.40
2018-05-18T23:44:15.395Z,11.30
2018-05-18T23:46:41.517Z,11.30
2018-05-18T23:49:07.735Z,11.30
2018-05-18T23:51:33.838Z,11.30
2018-05-18T23:53:59.864Z,11.30
2018-05-18T23:56:25.913Z,11.40
2018-05-18T23:58:51.974Z,11.40
